sensor_id;sensor_type;location;lat;lon;timestamp;temperature;humidity
2489;DHT22;1255;48.716;9.124;2023-12-14T00:00:41;5.20;99.90
2489;DHT22;1255;48.716;9.124;2023-12-14T00:03:07;5.10;99.90
2489;DHT22;1255;48.716;9.124;2023-12-14T00:05:34;5.10;99.90
2489;DHT22;1255;48.716;9.124;2023-12-14T00:08:01;5.10;99.90
2489;DHT22;1255;48.716;9.124;2023-12-14T00:10:28;5.10;99.90
2489;DHT22;1255;48.716;9.124;2023-12-14T00:12:56;5.00;99.90
2489;DHT22;1255;48.716;9.124;2023-12-14T04:31:50;5.70;99.90
2489;DHT22;1255;48.716;9.124;2023-12-14T04:34:29;5.70;99.90
2489;DHT22;1255;48.716;9.124;2023-12-14T04:37:02;5.80;99.90
2489;DHT22;1255;48.716;9.124;2023-12-14T04:39:29;5.70;99.90
2489;DHT22;1255;48.716;9.124;2023-12-14T04:41:56;5.80;99.90
2489;DHT22;1255;48.716;9.124;2023-12-14T04:44:22;5.70;99.90
2489;DHT22;1255;48.716;9.124;2023-12-14T04:46:50;5.80;99.90
2489;DHT22;1255;48.716;9.124;2023-12-14T04:49:18;5.70;99.90
2489;DHT22;1255;48.716;9.124;2023-12-14T04:51:45;5.70;99.90
2489;DHT22;1255;48.716;9.124;2023-12-14T04:54:12;5.70;99.90
2489;DHT22;1255;48.716;9.124;2023-12-14T04:56:38;5.70;99.90
2489;DHT22;1255;48.716;9.124;2023-12-14T04:59:06;5.70;99.90
2489;DHT22;1255;48.716;9.124;2023-12-14T05:01:33;5.70;99.90
2489;DHT22;1255;48.716;9.124;2023-12-14T05:04:02;5.80;99.90
2489;DHT22;1255;48.716;9.124;2023-12-14T05:06:29;5.80;99.90
2489;DHT22;1255;48.716;9.124;2023-12-14T05:08:58;5.70;99.90
2489;DHT22;1255;48.716;9.124;2023-12-14T05:11:27;5.80;99.90
2489;DHT22;1255;48.716;9.124;2023-12-14T05:13:53;5.80;99.90
2489;DHT22;1255;48.716;9.124;2023-12-14T05:16:20;5.80;99.90
2489;DHT22;1255;48.716;9.124;2023-12-14T05:18:47;5.80;99.90
2489;DHT22;1255;48.716;9.124;2023-12-14T05:21:17;5.80;99.90
2489;DHT22;1255;48.716;9.124;2023-12-14T05:23:44;5.90;99.90
2489;DHT22;1255;48.716;9.124;2023-12-14T05:26:11;5.90;99.90
2489;DHT22;1255;48.716;9.124;2023-12-14T05:28:38;5.90;99.90
2489;DHT22;1255;48.716;9.124;2023-12-14T05:31:05;5.90;99.90
2489;DHT22;1255;48.716;9.124;2023-12-14T05:33:31;5.90;99.90
2489;DHT22;1255;48.716;9.124;2023-12-14T05:35:59;5.80;99.90
2489;DHT22;1255;48.716;9.124;2023-12-14T05:38:27;5.90;99.90
2489;DHT22;1255;48.716;9.124;2023-12-14T05:40:54;5.90;99.90
2489;DHT22;1255;48.716;9.124;2023-12-14T05:43:20;5.90;99.90
2489;DHT22;1255;48.716;9.124;2023-12-14T05:45:48;5.90;99.90
2489;DHT22;1255;48.716;9.124;2023-12-14T05:48:15;5.90;99.90
2489;DHT22;1255;48.716;9.124;2023-12-14T05:50:42;5.90;99.90
2489;DHT22;1255;48.716;9.124;2023-12-14T05:53:08;5.90;99.90
2489;DHT22;1255;48.716;9.124;2023-12-14T05:55:37;5.90;99.90
2489;DHT22;1255;48.716;9.124;2023-12-14T05:58:05;5.90;99.90
2489;DHT22;1255;48.716;9.124;2023-12-14T06:00:33;5.90;99.90
2489;DHT22;1255;48.716;9.124;2023-12-14T06:03:00;5.90;99.90
2489;DHT22;1255;48.716;9.124;2023-12-14T06:05:26;6.00;99.90
2489;DHT22;1255;48.716;9.124;2023-12-14T06:07:53;5.90;99.90
2489;DHT22;1255;48.716;9.124;2023-12-14T06:10:20;6.00;99.90
2489;DHT22;1255;48.716;9.124;2023-12-14T06:12:48;6.00;99.90
2489;DHT22;1255;48.716;9.124;2023-12-14T06:15:15;6.00;99.90
2489;DHT22;1255;48.716;9.124;2023-12-14T06:17:42;6.00;99.90
2489;DHT22;1255;48.716;9.124;2023-12-14T06:20:09;6.00;99.90
2489;DHT22;1255;48.716;9.124;2023-12-14T06:22:36;6.00;99.90
2489;DHT22;1255;48.716;9.124;2023-12-14T06:25:03;6.00;99.90
2489;DHT22;1255;48.716;9.124;2023-12-14T06:27:30;6.00;99.90
2489;DHT22;1255;48.716;9.124;2023-12-14T06:29:58;6.00;99.90
2489;DHT22;1255;48.716;9.124;2023-12-14T06:32:25;6.00;99.90
2489;DHT22;1255;48.716;9.124;2023-12-14T06:34:52;6.00;99.90
2489;DHT22;1255;48.716;9.124;2023-12-14T06:37:19;6.00;99.90
2489;DHT22;1255;48.716;9.124;2023-12-14T06:39:45;6.00;99.90
2489;DHT22;1255;48.716;9.124;2023-12-14T06:42:12;6.00;99.90
2489;DHT22;1255;48.716;9.124;2023-12-14T06:44:39;6.00;99.90
2489;DHT22;1255;48.716;9.124;2023-12-14T06:47:07;6.00;99.90
2489;DHT22;1255;48.716;9.124;2023-12-14T06:49:34;6.00;99.90
2489;DHT22;1255;48.716;9.124;2023-12-14T06:52:00;6.00;99.90
2489;DHT22;1255;48.716;9.124;2023-12-14T06:54:27;5.90;99.90
2489;DHT22;1255;48.716;9.124;2023-12-14T06:56:54;6.00;99.90
2489;DHT22;1255;48.716;9.124;2023-12-14T06:59:20;5.90;99.90
2489;DHT22;1255;48.716;9.124;2023-12-14T07:01:47;5.90;99.90
2489;DHT22;1255;48.716;9.124;2023-12-14T07:04:15;5.90;99.90
2489;DHT22;1255;48.716;9.124;2023-12-14T07:06:42;5.90;99.90
2489;DHT22;1255;48.716;9.124;2023-12-14T07:09:08;5.90;99.90
2489;DHT22;1255;48.716;9.124;2023-12-14T07:11:35;5.90;99.90
2489;DHT22;1255;48.716;9.124;2023-12-14T07:14:02;5.90;99.90
2489;DHT22;1255;48.716;9.124;2023-12-14T07:16:28;5.90;99.90
2489;DHT22;1255;48.716;9.124;2023-12-14T07:18:55;5.90;99.90
2489;DHT22;1255;48.716;9.124;2023-12-14T07:21:23;6.00;99.90
2489;DHT22;1255;48.716;9.124;2023-12-14T07:23:50;6.00;99.90
2489;DHT22;1255;48.716;9.124;2023-12-14T07:26:16;6.00;99.90
2489;DHT22;1255;48.716;9.124;2023-12-14T07:28:43;6.00;99.90
2489;DHT22;1255;48.716;9.124;2023-12-14T07:31:10;6.00;99.90
2489;DHT22;1255;48.716;9.124;2023-12-14T07:33:37;6.00;99.90
2489;DHT22;1255;48.716;9.124;2023-12-14T07:36:04;6.10;99.90
2489;DHT22;1255;48.716;9.124;2023-12-14T07:38:32;6.10;99.90
2489;DHT22;1255;48.716;9.124;2023-12-14T07:40:59;6.00;99.90
2489;DHT22;1255;48.716;9.124;2023-12-14T07:43:26;6.00;99.90
2489;DHT22;1255;48.716;9.124;2023-12-14T07:45:52;6.10;99.90
2489;DHT22;1255;48.716;9.124;2023-12-14T07:48:19;6.10;99.90
2489;DHT22;1255;48.716;9.124;2023-12-14T07:50:46;6.10;99.90
2489;DHT22;1255;48.716;9.124;2023-12-14T07:53:14;6.10;99.90
2489;DHT22;1255;48.716;9.124;2023-12-14T07:55:42;6.10;99.90
2489;DHT22;1255;48.716;9.124;2023-12-14T07:58:08;6.10;99.90
2489;DHT22;1255;48.716;9.124;2023-12-14T08:00:35;6.10;99.90
2489;DHT22;1255;48.716;9.124;2023-12-14T08:03:02;6.10;99.90
2489;DHT22;1255;48.716;9.124;2023-12-14T08:05:28;6.10;99.90
2489;DHT22;1255;48.716;9.124;2023-12-14T08:07:55;6.20;99.90
2489;DHT22;1255;48.716;9.124;2023-12-14T08:10:22;6.20;99.90
2489;DHT22;1255;48.716;9.124;2023-12-14T08:12:50;6.30;99.90
2489;DHT22;1255;48.716;9.124;2023-12-14T08:15:17;6.40;99.90
2489;DHT22;1255;48.716;9.124;2023-12-14T08:17:44;6.50;99.90
2489;DHT22;1255;48.716;9.124;2023-12-14T08:20:11;6.60;99.90
2489;DHT22;1255;48.716;9.124;2023-12-14T08:22:38;6.60;99.90
2489;DHT22;1255;48.716;9.124;2023-12-14T08:25:11;6.60;99.90
2489;DHT22;1255;48.716;9.124;2023-12-14T08:27:37;6.60;99.90
2489;DHT22;1255;48.716;9.124;2023-12-14T08:30:07;6.60;99.90
2489;DHT22;1255;48.716;9.124;2023-12-14T08:32:34;6.70;99.90
2489;DHT22;1255;48.716;9.124;2023-12-14T08:35:00;6.70;99.90
2489;DHT22;1255;48.716;9.124;2023-12-14T08:37:27;6.90;99.90
2489;DHT22;1255;48.716;9.124;2023-12-14T08:39:54;7.00;99.90
2489;DHT22;1255;48.716;9.124;2023-12-14T08:42:21;7.00;99.90
2489;DHT22;1255;48.716;9.124;2023-12-14T08:44:48;7.20;99.90
2489;DHT22;1255;48.716;9.124;2023-12-14T08:47:16;7.40;99.90
2489;DHT22;1255;48.716;9.124;2023-12-14T08:49:43;7.40;99.90
2489;DHT22;1255;48.716;9.124;2023-12-14T08:52:10;7.50;99.90
2489;DHT22;1255;48.716;9.124;2023-12-14T08:54:37;7.60;99.90
2489;DHT22;1255;48.716;9.124;2023-12-14T08:57:04;7.70;99.90
2489;DHT22;1255;48.716;9.124;2023-12-14T08:59:31;7.90;99.90
2489;DHT22;1255;48.716;9.124;2023-12-14T09:01:58;7.90;99.90
2489;DHT22;1255;48.716;9.124;2023-12-14T09:04:26;7.90;99.90
2489;DHT22;1255;48.716;9.124;2023-12-14T09:06:53;7.90;99.90
2489;DHT22;1255;48.716;9.124;2023-12-14T09:09:20;7.80;99.90
2489;DHT22;1255;48.716;9.124;2023-12-14T09:11:46;7.70;99.90
2489;DHT22;1255;48.716;9.124;2023-12-14T09:14:13;7.60;99.90
2489;DHT22;1255;48.716;9.124;2023-12-14T09:16:40;7.50;99.90
2489;DHT22;1255;48.716;9.124;2023-12-14T09:19:06;7.50;99.90
2489;DHT22;1255;48.716;9.124;2023-12-14T09:21:35;7.50;99.90
2489;DHT22;1255;48.716;9.124;2023-12-14T09:24:02;7.60;99.90
2489;DHT22;1255;48.716;9.124;2023-12-14T09:26:28;7.60;99.90
2489;DHT22;1255;48.716;9.124;2023-12-14T09:28:55;7.60;99.90
2489;DHT22;1255;48.716;9.124;2023-12-14T09:31:22;7.60;99.90
2489;DHT22;1255;48.716;9.124;2023-12-14T09:33:49;7.60;99.90
2489;DHT22;1255;48.716;9.124;2023-12-14T09:36:17;7.60;99.90
2489;DHT22;1255;48.716;9.124;2023-12-14T09:38:46;7.60;99.90
2489;DHT22;1255;48.716;9.124;2023-12-14T09:41:13;7.60;99.90
2489;DHT22;1255;48.716;9.124;2023-12-14T09:43:39;7.70;99.90
2489;DHT22;1255;48.716;9.124;2023-12-14T09:46:07;7.90;99.90
2489;DHT22;1255;48.716;9.124;2023-12-14T09:48:35;8.10;99.90
2489;DHT22;1255;48.716;9.124;2023-12-14T09:51:02;8.30;99.90
2489;DHT22;1255;48.716;9.124;2023-12-14T09:53:31;8.50;99.90
2489;DHT22;1255;48.716;9.124;2023-12-14T09:55:58;8.70;99.90
2489;DHT22;1255;48.716;9.124;2023-12-14T09:58:25;8.90;99.90
2489;DHT22;1255;48.716;9.124;2023-12-14T10:00:52;9.20;99.90
2489;DHT22;1255;48.716;9.124;2023-12-14T10:03:21;9.60;99.90
2489;DHT22;1255;48.716;9.124;2023-12-14T10:05:47;9.90;99.90
2489;DHT22;1255;48.716;9.124;2023-12-14T10:08:14;10.00;99.90
2489;DHT22;1255;48.716;9.124;2023-12-14T10:10:41;10.10;99.90
2489;DHT22;1255;48.716;9.124;2023-12-14T10:13:10;10.50;99.90
2489;DHT22;1255;48.716;9.124;2023-12-14T10:15:41;11.40;99.90
2489;DHT22;1255;48.716;9.124;2023-12-14T10:18:09;11.70;99.90
2489;DHT22;1255;48.716;9.124;2023-12-14T10:20:35;11.60;99.90
2489;DHT22;1255;48.716;9.124;2023-12-14T10:23:03;11.50;99.90
2489;DHT22;1255;48.716;9.124;2023-12-14T10:25:30;11.60;99.90
2489;DHT22;1255;48.716;9.124;2023-12-14T10:27:57;11.50;99.90
2489;DHT22;1255;48.716;9.124;2023-12-14T10:30:28;11.30;99.90
2489;DHT22;1255;48.716;9.124;2023-12-14T10:32:55;10.80;99.90
2489;DHT22;1255;48.716;9.124;2023-12-14T10:35:22;10.40;99.90
2489;DHT22;1255;48.716;9.124;2023-12-14T10:37:51;10.10;99.90
2489;DHT22;1255;48.716;9.124;2023-12-14T10:40:18;9.70;99.90
2489;DHT22;1255;48.716;9.124;2023-12-14T10:42:46;9.60;99.90
2489;DHT22;1255;48.716;9.124;2023-12-14T10:45:15;9.50;99.90
2489;DHT22;1255;48.716;9.124;2023-12-14T10:47:46;9.50;99.90
2489;DHT22;1255;48.716;9.124;2023-12-14T10:50:15;9.50;99.90
2489;DHT22;1255;48.716;9.124;2023-12-14T10:52:45;9.50;99.90
2489;DHT22;1255;48.716;9.124;2023-12-14T10:55:18;9.70;99.90
2489;DHT22;1255;48.716;9.124;2023-12-14T10:57:47;9.70;99.90
2489;DHT22;1255;48.716;9.124;2023-12-14T11:00:16;9.90;99.90
2489;DHT22;1255;48.716;9.124;2023-12-14T11:02:46;10.10;99.90
2489;DHT22;1255;48.716;9.124;2023-12-14T11:05:14;10.10;99.90
2489;DHT22;1255;48.716;9.124;2023-12-14T11:07:49;10.00;99.90
2489;DHT22;1255;48.716;9.124;2023-12-14T11:10:21;10.00;99.90
2489;DHT22;1255;48.716;9.124;2023-12-14T11:12:56;10.00;99.90
2489;DHT22;1255;48.716;9.124;2023-12-14T11:15:23;10.10;99.90
2489;DHT22;1255;48.716;9.124;2023-12-14T11:18:28;10.20;99.90
2489;DHT22;1255;48.716;9.124;2023-12-14T11:20:56;10.30;99.90
2489;DHT22;1255;48.716;9.124;2023-12-14T11:23:32;10.80;99.90
2489;DHT22;1255;48.716;9.124;2023-12-14T11:26:02;11.90;99.90
2489;DHT22;1255;48.716;9.124;2023-12-14T11:28:31;12.60;99.90
2489;DHT22;1255;48.716;9.124;2023-12-14T11:30:58;12.50;99.90
2489;DHT22;1255;48.716;9.124;2023-12-14T11:33:25;12.20;99.90
2489;DHT22;1255;48.716;9.124;2023-12-14T11:35:55;11.70;99.90
2489;DHT22;1255;48.716;9.124;2023-12-14T11:38:25;11.30;99.90
2489;DHT22;1255;48.716;9.124;2023-12-14T11:40:57;11.50;99.90
2489;DHT22;1255;48.716;9.124;2023-12-14T11:43:33;11.80;99.90
2489;DHT22;1255;48.716;9.124;2023-12-14T11:46:05;12.00;99.90
2489;DHT22;1255;48.716;9.124;2023-12-14T11:48:32;11.90;99.90
2489;DHT22;1255;48.716;9.124;2023-12-14T11:51:00;11.80;99.90
2489;DHT22;1255;48.716;9.124;2023-12-14T11:53:27;11.50;99.90
2489;DHT22;1255;48.716;9.124;2023-12-14T11:55:53;11.20;99.90
2489;DHT22;1255;48.716;9.124;2023-12-14T11:58:20;10.70;99.90
2489;DHT22;1255;48.716;9.124;2023-12-14T12:00:47;10.30;99.90
2489;DHT22;1255;48.716;9.124;2023-12-14T12:03:15;9.90;99.90
2489;DHT22;1255;48.716;9.124;2023-12-14T12:05:43;9.70;99.90
2489;DHT22;1255;48.716;9.124;2023-12-14T12:08:12;9.50;99.90
2489;DHT22;1255;48.716;9.124;2023-12-14T12:10:40;9.40;99.90
2489;DHT22;1255;48.716;9.124;2023-12-14T12:13:11;9.30;99.90
2489;DHT22;1255;48.716;9.124;2023-12-14T12:15:38;9.20;99.90
2489;DHT22;1255;48.716;9.124;2023-12-14T12:18:06;9.10;99.90
2489;DHT22;1255;48.716;9.124;2023-12-14T12:20:33;9.00;99.90
2489;DHT22;1255;48.716;9.124;2023-12-14T12:23:00;9.00;99.90
2489;DHT22;1255;48.716;9.124;2023-12-14T12:25:28;9.00;99.90
2489;DHT22;1255;48.716;9.124;2023-12-14T12:27:55;8.90;99.90
2489;DHT22;1255;48.716;9.124;2023-12-14T12:30:22;8.90;99.90
2489;DHT22;1255;48.716;9.124;2023-12-14T12:32:49;8.80;99.90
2489;DHT22;1255;48.716;9.124;2023-12-14T12:35:16;8.70;99.90
2489;DHT22;1255;48.716;9.124;2023-12-14T12:37:43;8.50;99.90
2489;DHT22;1255;48.716;9.124;2023-12-14T12:40:11;8.30;99.90
2489;DHT22;1255;48.716;9.124;2023-12-14T12:42:39;8.20;99.90
2489;DHT22;1255;48.716;9.124;2023-12-14T12:45:06;8.10;99.90
2489;DHT22;1255;48.716;9.124;2023-12-14T12:47:33;8.10;99.90
2489;DHT22;1255;48.716;9.124;2023-12-14T12:50:00;8.00;99.90
2489;DHT22;1255;48.716;9.124;2023-12-14T12:52:28;7.90;99.90
2489;DHT22;1255;48.716;9.124;2023-12-14T12:54:54;8.00;99.90
2489;DHT22;1255;48.716;9.124;2023-12-14T12:57:21;7.90;99.90
2489;DHT22;1255;48.716;9.124;2023-12-14T12:59:49;7.90;99.90
2489;DHT22;1255;48.716;9.124;2023-12-14T13:02:16;7.90;99.90
2489;DHT22;1255;48.716;9.124;2023-12-14T13:04:43;7.90;99.90
2489;DHT22;1255;48.716;9.124;2023-12-14T13:07:10;7.80;99.90
2489;DHT22;1255;48.716;9.124;2023-12-14T13:09:37;7.70;99.90
2489;DHT22;1255;48.716;9.124;2023-12-14T13:12:04;7.70;99.90
2489;DHT22;1255;48.716;9.124;2023-12-14T13:14:31;7.60;99.90
2489;DHT22;1255;48.716;9.124;2023-12-14T13:16:59;7.50;99.90
2489;DHT22;1255;48.716;9.124;2023-12-14T13:19:26;7.40;99.90
2489;DHT22;1255;48.716;9.124;2023-12-14T13:21:54;7.30;99.90
2489;DHT22;1255;48.716;9.124;2023-12-14T13:24:22;7.20;99.90
2489;DHT22;1255;48.716;9.124;2023-12-14T13:26:49;7.10;99.90
2489;DHT22;1255;48.716;9.124;2023-12-14T13:29:16;7.20;99.90
2489;DHT22;1255;48.716;9.124;2023-12-14T13:31:43;7.10;99.90
2489;DHT22;1255;48.716;9.124;2023-12-14T13:34:11;7.10;99.90
2489;DHT22;1255;48.716;9.124;2023-12-14T13:36:38;7.20;99.90
2489;DHT22;1255;48.716;9.124;2023-12-14T13:39:04;7.20;99.90
2489;DHT22;1255;48.716;9.124;2023-12-14T13:41:32;7.20;99.90
2489;DHT22;1255;48.716;9.124;2023-12-14T13:44:00;7.30;99.90
2489;DHT22;1255;48.716;9.124;2023-12-14T13:46:27;7.30;99.90
2489;DHT22;1255;48.716;9.124;2023-12-14T13:48:53;7.20;99.90
2489;DHT22;1255;48.716;9.124;2023-12-14T13:51:21;7.20;99.90
2489;DHT22;1255;48.716;9.124;2023-12-14T13:53:48;7.20;99.90
2489;DHT22;1255;48.716;9.124;2023-12-14T13:56:15;7.10;99.90
2489;DHT22;1255;48.716;9.124;2023-12-14T13:58:42;7.10;99.90
2489;DHT22;1255;48.716;9.124;2023-12-14T14:01:08;7.10;99.90
2489;DHT22;1255;48.716;9.124;2023-12-14T14:03:35;7.10;99.90
2489;DHT22;1255;48.716;9.124;2023-12-14T14:06:03;7.10;99.90
2489;DHT22;1255;48.716;9.124;2023-12-14T14:08:32;7.10;99.90
2489;DHT22;1255;48.716;9.124;2023-12-14T14:10:59;7.10;99.90
2489;DHT22;1255;48.716;9.124;2023-12-14T14:13:26;7.00;99.90
2489;DHT22;1255;48.716;9.124;2023-12-14T14:15:53;7.00;99.90
2489;DHT22;1255;48.716;9.124;2023-12-14T14:18:20;7.00;99.90
2489;DHT22;1255;48.716;9.124;2023-12-14T14:20:47;7.00;99.90
2489;DHT22;1255;48.716;9.124;2023-12-14T14:23:14;7.00;99.90
2489;DHT22;1255;48.716;9.124;2023-12-14T14:25:42;7.00;99.90
2489;DHT22;1255;48.716;9.124;2023-12-14T14:28:09;7.00;99.90
2489;DHT22;1255;48.716;9.124;2023-12-14T14:30:36;6.90;99.90
2489;DHT22;1255;48.716;9.124;2023-12-14T14:33:03;6.90;99.90
2489;DHT22;1255;48.716;9.124;2023-12-14T14:35:30;6.90;99.90
2489;DHT22;1255;48.716;9.124;2023-12-14T14:37:58;6.90;99.90
2489;DHT22;1255;48.716;9.124;2023-12-14T14:40:26;6.90;99.90
2489;DHT22;1255;48.716;9.124;2023-12-14T14:42:54;6.90;99.90
2489;DHT22;1255;48.716;9.124;2023-12-14T14:45:21;6.90;99.90
2489;DHT22;1255;48.716;9.124;2023-12-14T14:47:48;6.90;99.90
2489;DHT22;1255;48.716;9.124;2023-12-14T14:50:14;6.90;99.90
2489;DHT22;1255;48.716;9.124;2023-12-14T14:52:41;6.90;99.90
2489;DHT22;1255;48.716;9.124;2023-12-14T14:55:08;6.90;99.90
2489;DHT22;1255;48.716;9.124;2023-12-14T14:57:35;6.90;99.90
2489;DHT22;1255;48.716;9.124;2023-12-14T15:00:04;6.90;99.90
2489;DHT22;1255;48.716;9.124;2023-12-14T15:02:31;6.90;99.90
2489;DHT22;1255;48.716;9.124;2023-12-14T15:04:58;6.80;99.90
2489;DHT22;1255;48.716;9.124;2023-12-14T15:07:25;6.80;99.90
2489;DHT22;1255;48.716;9.124;2023-12-14T15:09:54;6.80;99.90
2489;DHT22;1255;48.716;9.124;2023-12-14T15:12:20;6.80;99.90
2489;DHT22;1255;48.716;9.124;2023-12-14T15:14:47;6.80;99.90
2489;DHT22;1255;48.716;9.124;2023-12-14T15:17:15;6.80;99.90
2489;DHT22;1255;48.716;9.124;2023-12-14T15:19:44;6.80;99.90
2489;DHT22;1255;48.716;9.124;2023-12-14T15:22:12;6.80;99.90
2489;DHT22;1255;48.716;9.124;2023-12-14T15:24:38;6.70;99.90
2489;DHT22;1255;48.716;9.124;2023-12-14T15:27:05;6.70;99.90
2489;DHT22;1255;48.716;9.124;2023-12-14T15:29:32;6.70;99.90
2489;DHT22;1255;48.716;9.124;2023-12-14T15:31:58;6.60;99.90
2489;DHT22;1255;48.716;9.124;2023-12-14T15:34:26;6.60;99.90
2489;DHT22;1255;48.716;9.124;2023-12-14T15:36:53;6.60;99.90
2489;DHT22;1255;48.716;9.124;2023-12-14T15:39:20;6.60;99.90
2489;DHT22;1255;48.716;9.124;2023-12-14T15:41:47;6.60;99.90
2489;DHT22;1255;48.716;9.124;2023-12-14T15:44:13;6.60;99.90
2489;DHT22;1255;48.716;9.124;2023-12-14T15:46:40;6.60;99.90
2489;DHT22;1255;48.716;9.124;2023-12-14T15:49:07;6.60;99.90
2489;DHT22;1255;48.716;9.124;2023-12-14T15:51:39;6.50;99.90
2489;DHT22;1255;48.716;9.124;2023-12-14T15:54:05;6.60;99.90
2489;DHT22;1255;48.716;9.124;2023-12-14T15:56:32;6.50;99.90
2489;DHT22;1255;48.716;9.124;2023-12-14T15:58:59;6.50;99.90
2489;DHT22;1255;48.716;9.124;2023-12-14T16:01:25;6.50;99.90
2489;DHT22;1255;48.716;9.124;2023-12-14T16:03:52;6.40;99.90
2489;DHT22;1255;48.716;9.124;2023-12-14T16:06:19;6.40;99.90
2489;DHT22;1255;48.716;9.124;2023-12-14T16:08:47;6.40;99.90
2489;DHT22;1255;48.716;9.124;2023-12-14T16:11:14;6.50;99.90
2489;DHT22;1255;48.716;9.124;2023-12-14T16:13:41;6.40;99.90
2489;DHT22;1255;48.716;9.124;2023-12-14T16:16:08;6.40;99.90
2489;DHT22;1255;48.716;9.124;2023-12-14T16:18:35;6.40;99.90
2489;DHT22;1255;48.716;9.124;2023-12-14T16:21:02;6.40;99.90
2489;DHT22;1255;48.716;9.124;2023-12-14T16:23:29;6.30;99.90
2489;DHT22;1255;48.716;9.124;2023-12-14T16:25:58;6.30;99.90
2489;DHT22;1255;48.716;9.124;2023-12-14T16:28:25;6.30;99.90
2489;DHT22;1255;48.716;9.124;2023-12-14T16:30:51;6.30;99.90
2489;DHT22;1255;48.716;9.124;2023-12-14T16:33:18;6.20;99.90
2489;DHT22;1255;48.716;9.124;2023-12-14T16:35:45;6.20;99.90
2489;DHT22;1255;48.716;9.124;2023-12-14T16:38:11;6.20;99.90
2489;DHT22;1255;48.716;9.124;2023-12-14T16:40:38;6.20;99.90
2489;DHT22;1255;48.716;9.124;2023-12-14T16:43:06;6.20;99.90
2489;DHT22;1255;48.716;9.124;2023-12-14T16:45:33;6.20;99.90
2489;DHT22;1255;48.716;9.124;2023-12-14T16:48:00;6.20;99.90
2489;DHT22;1255;48.716;9.124;2023-12-14T16:50:27;6.20;99.90
2489;DHT22;1255;48.716;9.124;2023-12-14T16:52:54;6.20;99.90
2489;DHT22;1255;48.716;9.124;2023-12-14T16:55:20;6.20;99.90
2489;DHT22;1255;48.716;9.124;2023-12-14T16:57:47;6.10;99.90
2489;DHT22;1255;48.716;9.124;2023-12-14T17:00:16;6.10;99.90
2489;DHT22;1255;48.716;9.124;2023-12-14T17:02:43;6.10;99.90
2489;DHT22;1255;48.716;9.124;2023-12-14T17:05:09;6.10;99.90
2489;DHT22;1255;48.716;9.124;2023-12-14T17:07:36;6.10;99.90
2489;DHT22;1255;48.716;9.124;2023-12-14T17:10:03;6.10;99.90
2489;DHT22;1255;48.716;9.124;2023-12-14T17:12:30;6.10;99.90
2489;DHT22;1255;48.716;9.124;2023-12-14T17:14:57;6.10;99.90
2489;DHT22;1255;48.716;9.124;2023-12-14T17:17:25;6.10;99.90
2489;DHT22;1255;48.716;9.124;2023-12-14T17:19:55;6.10;99.90
2489;DHT22;1255;48.716;9.124;2023-12-14T17:22:24;6.10;99.90
2489;DHT22;1255;48.716;9.124;2023-12-14T17:24:50;6.00;99.90
2489;DHT22;1255;48.716;9.124;2023-12-14T17:27:17;5.90;99.90
2489;DHT22;1255;48.716;9.124;2023-12-14T17:29:44;5.90;99.90
2489;DHT22;1255;48.716;9.124;2023-12-14T17:32:11;5.90;99.90
2489;DHT22;1255;48.716;9.124;2023-12-14T17:34:39;5.90;99.90
2489;DHT22;1255;48.716;9.124;2023-12-14T17:37:05;5.90;99.90
2489;DHT22;1255;48.716;9.124;2023-12-14T17:39:32;5.90;99.90
2489;DHT22;1255;48.716;9.124;2023-12-14T17:41:59;5.90;99.90
2489;DHT22;1255;48.716;9.124;2023-12-14T17:44:25;5.90;99.90
2489;DHT22;1255;48.716;9.124;2023-12-14T17:46:52;5.90;99.90
2489;DHT22;1255;48.716;9.124;2023-12-14T17:49:19;5.80;99.90
2489;DHT22;1255;48.716;9.124;2023-12-14T17:51:47;5.80;99.90
2489;DHT22;1255;48.716;9.124;2023-12-14T17:54:13;5.80;99.90
2489;DHT22;1255;48.716;9.124;2023-12-14T17:56:40;5.80;99.90
2489;DHT22;1255;48.716;9.124;2023-12-14T17:59:07;5.80;99.90
2489;DHT22;1255;48.716;9.124;2023-12-14T18:01:34;5.70;99.90
2489;DHT22;1255;48.716;9.124;2023-12-14T18:04:00;5.70;99.90
2489;DHT22;1255;48.716;9.124;2023-12-14T18:06:27;5.70;99.90
2489;DHT22;1255;48.716;9.124;2023-12-14T18:08:55;5.70;99.90
2489;DHT22;1255;48.716;9.124;2023-12-14T18:11:23;5.70;99.90
2489;DHT22;1255;48.716;9.124;2023-12-14T18:13:50;5.80;99.90
2489;DHT22;1255;48.716;9.124;2023-12-14T18:16:17;5.80;99.90
2489;DHT22;1255;48.716;9.124;2023-12-14T18:18:43;5.70;99.90
2489;DHT22;1255;48.716;9.124;2023-12-14T18:21:10;5.70;99.90
2489;DHT22;1255;48.716;9.124;2023-12-14T18:23:37;5.70;99.90
2489;DHT22;1255;48.716;9.124;2023-12-14T18:26:05;5.70;99.90
2489;DHT22;1255;48.716;9.124;2023-12-14T18:28:32;5.60;99.90
2489;DHT22;1255;48.716;9.124;2023-12-14T18:30:58;5.60;99.90
2489;DHT22;1255;48.716;9.124;2023-12-14T18:33:26;5.60;99.90
2489;DHT22;1255;48.716;9.124;2023-12-14T18:35:53;5.60;99.90
2489;DHT22;1255;48.716;9.124;2023-12-14T18:38:20;5.50;99.90
2489;DHT22;1255;48.716;9.124;2023-12-14T18:40:47;5.60;99.90
2489;DHT22;1255;48.716;9.124;2023-12-14T18:43:15;5.60;99.90
2489;DHT22;1255;48.716;9.124;2023-12-14T18:45:42;5.60;99.90
2489;DHT22;1255;48.716;9.124;2023-12-14T18:48:10;5.60;99.90
2489;DHT22;1255;48.716;9.124;2023-12-14T18:50:37;5.60;99.90
2489;DHT22;1255;48.716;9.124;2023-12-14T18:53:03;5.50;99.90
2489;DHT22;1255;48.716;9.124;2023-12-14T18:55:34;5.50;99.90
2489;DHT22;1255;48.716;9.124;2023-12-14T18:58:01;5.50;99.90
2489;DHT22;1255;48.716;9.124;2023-12-14T19:00:29;5.50;99.90
2489;DHT22;1255;48.716;9.124;2023-12-14T19:02:56;5.50;99.90
2489;DHT22;1255;48.716;9.124;2023-12-14T19:05:23;5.50;99.90
2489;DHT22;1255;48.716;9.124;2023-12-14T19:07:51;5.50;99.90
2489;DHT22;1255;48.716;9.124;2023-12-14T19:10:19;5.60;99.90
2489;DHT22;1255;48.716;9.124;2023-12-14T19:12:45;5.50;99.90
2489;DHT22;1255;48.716;9.124;2023-12-14T19:15:12;5.50;99.90
2489;DHT22;1255;48.716;9.124;2023-12-14T19:17:48;5.50;99.90
2489;DHT22;1255;48.716;9.124;2023-12-14T19:20:19;5.50;99.90
2489;DHT22;1255;48.716;9.124;2023-12-14T19:22:46;5.60;99.90
2489;DHT22;1255;48.716;9.124;2023-12-14T19:25:14;5.50;99.90
2489;DHT22;1255;48.716;9.124;2023-12-14T19:27:43;5.50;99.90
2489;DHT22;1255;48.716;9.124;2023-12-14T19:30:19;5.60;99.90
2489;DHT22;1255;48.716;9.124;2023-12-14T19:32:54;5.50;99.90
2489;DHT22;1255;48.716;9.124;2023-12-14T19:35:21;5.50;99.90
2489;DHT22;1255;48.716;9.124;2023-12-14T19:37:48;5.70;99.90
2489;DHT22;1255;48.716;9.124;2023-12-14T19:40:18;5.50;99.90
2489;DHT22;1255;48.716;9.124;2023-12-14T19:42:46;5.50;99.90
2489;DHT22;1255;48.716;9.124;2023-12-14T19:45:12;5.40;99.90
2489;DHT22;1255;48.716;9.124;2023-12-14T19:47:39;5.40;99.90
2489;DHT22;1255;48.716;9.124;2023-12-14T19:50:08;5.40;99.90
2489;DHT22;1255;48.716;9.124;2023-12-14T19:52:36;5.50;99.90
2489;DHT22;1255;48.716;9.124;2023-12-14T19:55:11;5.50;99.90
2489;DHT22;1255;48.716;9.124;2023-12-14T19:57:47;5.40;99.90
2489;DHT22;1255;48.716;9.124;2023-12-14T20:00:17;5.40;99.90
2489;DHT22;1255;48.716;9.124;2023-12-14T20:02:43;5.50;99.90
2489;DHT22;1255;48.716;9.124;2023-12-14T20:05:12;5.40;99.90
2489;DHT22;1255;48.716;9.124;2023-12-14T20:07:38;5.40;99.90
2489;DHT22;1255;48.716;9.124;2023-12-14T20:10:06;5.30;99.90
2489;DHT22;1255;48.716;9.124;2023-12-14T20:12:33;5.30;99.90
2489;DHT22;1255;48.716;9.124;2023-12-14T20:14:59;5.30;99.90
2489;DHT22;1255;48.716;9.124;2023-12-14T20:17:26;5.30;99.90
2489;DHT22;1255;48.716;9.124;2023-12-14T20:19:53;5.30;99.90
2489;DHT22;1255;48.716;9.124;2023-12-14T20:22:21;5.20;99.90
2489;DHT22;1255;48.716;9.124;2023-12-14T20:24:47;5.20;99.90
2489;DHT22;1255;48.716;9.124;2023-12-14T20:27:15;5.20;99.90
2489;DHT22;1255;48.716;9.124;2023-12-14T20:29:42;5.10;99.90
2489;DHT22;1255;48.716;9.124;2023-12-14T20:32:08;5.20;99.90
2489;DHT22;1255;48.716;9.124;2023-12-14T20:34:35;5.10;99.90